Time;durP1;ratioP1;P1;durP2;ratioP2;P2;SDS_P1;SDS_P2;PMS_P1;PMS_P2;Temp;Humidity;BMP_temperature;BMP_pressure;BME280_temperature;BME280_humidity;BME280_pressure;Samples;Min_cycle;Max_cycle;Signal;HPM_P1;HPM_P2
2022/11/10 00:00:54;;;;;;;5.38;2.28;;;;;;;11.20;93.62;100441.44;10558430;28;20047;-75
2022/11/10 00:05:56;;;;;;;5.13;2.45;;;;;;;11.18;93.40;100433.56;10543447;28;20474;-75
2022/11/10 00:10:57;;;;;;;3.25;2.03;;;;;;;11.16;92.99;100448.84;10533170;28;20054;-73
2022/11/10 00:21:24;;;;;;;9.07;2.03;;;;;;;11.10;93.29;100458.16;10560811;28;20048;-75
2022/11/10 00:26:25;;;;;;;5.38;2.53;;;;;;;11.07;93.05;100468.22;10566710;28;20050;-75
2022/11/10 00:31:27;;;;;;;5.97;2.72;;;;;;;11.06;92.76;100483.34;10550176;28;20078;-72
2022/11/10 00:36:29;;;;;;;7.00;2.40;;;;;;;11.06;92.91;100490.47;10526805;28;20044;-75
2022/11/10 00:41:30;;;;;;;7.40;2.30;;;;;;;11.07;92.60;100494.84;10577230;27;20107;-73
2022/11/10 00:46:32;;;;;;;6.40;2.42;;;;;;;11.04;92.65;100495.94;10577501;28;20082;-75
2022/11/10 00:51:33;;;;;;;7.32;2.58;;;;;;;11.00;92.63;100502.47;10544335;28;20048;-72
2022/11/10 00:56:34;;;;;;;4.93;2.75;;;;;;;10.93;92.46;100502.13;10535104;28;20833;-72
2022/11/10 01:01:36;;;;;;;7.25;2.35;;;;;;;10.89;92.52;100524.63;10537589;27;20052;-73
2022/11/10 01:06:38;;;;;;;4.95;1.98;;;;;;;10.86;92.44;100535.50;10537902;28;22747;-72
2022/11/10 01:11:39;;;;;;;6.10;2.17;;;;;;;10.86;92.60;100546.16;10535845;28;20063;-73
2022/11/10 01:16:40;;;;;;;5.80;2.28;;;;;;;10.87;92.45;100553.19;10568188;28;20071;-72
2022/11/10 01:21:42;;;;;;;3.97;2.50;;;;;;;10.86;92.04;100551.50;10525612;27;20047;-75
2022/11/10 01:26:43;;;;;;;4.90;2.28;;;;;;;10.83;91.41;100558.88;10535186;28;20751;-74
2022/11/10 01:31:44;;;;;;;4.25;2.00;;;;;;;10.83;91.53;100564.19;10537038;28;20089;-72
2022/11/10 01:36:46;;;;;;;5.30;2.28;;;;;;;10.81;92.12;100569.66;10533343;28;20681;-73
2022/11/10 01:41:47;;;;;;;4.93;2.20;;;;;;;10.71;91.87;100580.13;10512273;28;20054;-75
2022/11/10 01:46:48;;;;;;;5.70;2.40;;;;;;;10.65;92.06;100577.09;10524495;28;20043;-73
2022/11/10 01:51:59;;;;;;;4.50;2.17;;;;;;;10.66;92.33;100584.09;10524047;28;20051;-73
2022/11/10 01:57:06;;;;;;;4.10;1.92;;;;;;;10.68;92.26;100590.19;10515575;28;20051;-72
2022/11/10 02:02:27;;;;;;;6.07;2.40;;;;;;;10.64;92.22;100596.69;10517615;28;20039;-74
2022/11/10 02:07:30;;;;;;;4.07;2.38;;;;;;;10.56;92.01;100600.78;10536512;28;20044;-71
2022/11/10 02:12:38;;;;;;;5.10;2.45;;;;;;;10.47;92.74;100596.16;10526764;27;20055;-72
2022/11/10 02:17:40;;;;;;;6.18;2.03;;;;;;;10.45;92.90;100600.75;10546767;28;20410;-75
2022/11/10 02:22:42;;;;;;;4.70;2.00;;;;;;;10.39;93.43;100606.53;10575427;28;20044;-74
2022/11/10 02:27:43;;;;;;;7.85;2.75;;;;;;;10.37;93.20;100609.28;10570420;28;20518;-74
2022/11/10 02:32:44;;;;;;;4.25;2.25;;;;;;;10.38;93.14;100610.97;10547009;28;20069;-74
2022/11/10 02:37:46;;;;;;;8.38;2.55;;;;;;;10.29;93.31;100606.31;10558049;27;20124;-73
2022/11/10 02:42:47;;;;;;;8.70;2.53;;;;;;;10.29;93.41;100594.81;10559771;28;20581;-74
2022/11/10 02:47:49;;;;;;;6.72;2.30;;;;;;;10.25;93.18;100605.69;10570587;28;20043;-74
2022/11/10 02:52:50;;;;;;;4.05;2.38;;;;;;;10.24;92.96;100598.66;10561543;28;20127;-74
2022/11/10 02:57:52;;;;;;;5.72;2.10;;;;;;;10.32;92.38;100600.75;10569764;28;20099;-75
2022/11/10 03:02:57;;;;;;;8.13;2.67;;;;;;;10.26;92.56;100602.06;10572399;28;20071;-75
2022/11/10 03:08:01;;;;;;;7.97;2.60;;;;;;;10.20;92.71;100618.47;10574479;28;20074;-74
2022/11/10 03:13:02;;;;;;;5.78;2.28;;;;;;;10.19;92.95;100630.09;10565084;28;20063;-71
2022/11/10 03:18:04;;;;;;;7.68;2.10;;;;;;;10.20;92.69;100641.56;10530221;28;20052;-72
2022/11/10 03:23:06;;;;;;;4.07;2.05;;;;;;;10.21;92.81;100646.78;10533457;28;20570;-72
2022/11/10 03:28:07;;;;;;;4.60;2.10;;;;;;;10.17;92.97;100639.97;10527668;27;20044;-71
2022/11/10 03:33:09;;;;;;;7.43;2.25;;;;;;;10.23;92.39;100654.66;10509709;28;20057;-74
2022/11/10 03:38:10;;;;;;;4.70;2.08;;;;;;;10.27;92.33;100667.63;10528908;28;20597;-75
2022/11/10 03:43:11;;;;;;;7.00;3.03;;;;;;;10.31;92.75;100673.56;10519792;28;20039;-72
2022/11/10 03:48:12;;;;;;;4.78;2.95;;;;;;;10.29;92.07;100672.00;10519156;28;20055;-71
2022/11/10 03:53:14;;;;;;;6.40;2.50;;;;;;;10.27;91.75;100688.06;10505423;28;20162;-73
2022/11/10 03:58:15;;;;;;;6.47;2.75;;;;;;;10.25;91.90;100685.50;10514958;28;20054;-72
2022/11/10 04:03:16;;;;;;;9.70;2.67;;;;;;;10.25;91.79;100685.50;10523848;28;20054;-72
2022/11/10 04:18:57;;;;;;;5.65;1.83;;;;;;;10.26;91.24;100711.13;10527693;28;20043;-71
2022/11/10 04:23:59;;;;;;;6.93;2.70;;;;;;;10.17;91.16;100713.63;10512818;28;20052;-72
2022/11/10 04:29:02;;;;;;;7.40;2.95;;;;;;;10.12;91.54;100729.03;10525937;28;20426;-72
2022/11/10 04:34:09;;;;;;;5.47;2.42;;;;;;;9.99;91.87;100739.72;10522490;28;20611;-71
2022/11/10 04:39:10;;;;;;;5.10;2.45;;;;;;;9.90;92.61;100733.22;10528433;28;20062;-74
2022/11/10 04:44:12;;;;;;;7.07;2.95;;;;;;;9.84;92.77;100726.53;10506283;28;20296;-71
2022/11/10 04:49:13;;;;;;;5.70;2.58;;;;;;;9.79;92.93;100735.78;10518183;28;20048;-72
2022/11/10 04:54:15;;;;;;;5.50;2.60;;;;;;;9.75;94.30;100729.00;10520805;28;20064;-71
2022/11/10 04:59:16;;;;;;;6.78;2.67;;;;;;;9.77;94.28;100758.97;10557760;28;20051;-77
2022/11/10 05:04:17;;;;;;;6.32;2.58;;;;;;;9.72;93.94;100767.25;10538501;28;20044;-74
2022/11/10 05:09:19;;;;;;;8.90;3.10;;;;;;;9.69;94.22;100772.78;10521025;28;20394;-75
2022/11/10 05:14:20;;;;;;;7.25;2.70;;;;;;;9.68;94.80;100787.03;10564029;28;20389;-75
2022/11/10 05:19:21;;;;;;;8.90;3.42;;;;;;;9.62;95.02;100777.66;10569690;28;20115;-75
2022/11/10 05:24:22;;;;;;;6.82;2.70;;;;;;;9.62;95.30;100798.09;10570492;28;20119;-75
2022/11/10 05:29:24;;;;;;;7.82;3.90;;;;;;;9.48;96.64;100802.53;10572617;27;20055;-74
2022/11/10 05:34:25;;;;;;;9.60;3.85;;;;;;;9.45;97.06;100808.03;10516154;28;20058;-72
2022/11/10 05:39:26;;;;;;;5.95;3.00;;;;;;;9.53;96.22;100831.44;10531298;28;20048;-73
2022/11/10 05:44:28;;;;;;;4.43;2.85;;;;;;;9.47;96.14;100831.84;10505747;28;20642;-72
2022/11/10 05:49:29;;;;;;;6.53;2.88;;;;;;;9.47;95.98;100848.69;10507838;27;21280;-72
2022/11/10 05:54:30;;;;;;;7.88;4.40;;;;;;;9.44;96.24;100846.19;10492296;28;20051;-71
2022/11/10 05:59:32;;;;;;;5.22;3.55;;;;;;;9.49;96.38;100853.88;10491311;28;20422;-72
2022/11/10 06:04:33;;;;;;;6.97;3.72;;;;;;;9.41;96.68;100861.50;10501275;28;20055;-70
2022/11/10 06:09:35;;;;;;;11.13;5.82;;;;;;;9.32;98.23;100877.09;10483714;27;20063;-73
2022/11/10 06:14:36;;;;;;;9.95;4.50;;;;;;;9.32;98.63;100874.44;10486320;28;20047;-72
2022/11/10 06:19:38;;;;;;;9.65;5.22;;;;;;;9.35;98.20;100903.47;10502185;28;20039;-72
2022/11/10 06:24:39;;;;;;;8.88;5.07;;;;;;;9.38;98.12;100923.66;10506740;28;20059;-74
2022/11/10 06:29:40;;;;;;;11.95;5.13;;;;;;;9.29;98.75;100932.22;10516204;28;20043;-74
2022/11/10 06:34:42;;;;;;;11.20;6.10;;;;;;;9.25;99.25;100936.91;10511635;28;20413;-75
2022/11/10 06:39:45;;;;;;;6.00;4.88;;;;;;;9.29;99.42;100956.13;10506885;27;20050;-75
2022/11/10 06:44:46;;;;;;;8.25;5.80;;;;;;;9.32;99.09;100966.56;10500640;28;20055;-73
2022/11/10 06:49:47;;;;;;;8.00;5.93;;;;;;;9.26;99.42;100966.97;10488493;28;20601;-72
2022/11/10 06:54:49;;;;;;;7.95;5.45;;;;;;;9.31;99.58;100986.13;10501496;28;20047;-75
2022/11/10 06:59:50;;;;;;;13.52;6.25;;;;;;;9.16;99.43;100962.25;10543777;28;20063;-77
2022/11/10 07:04:51;;;;;;;8.30;6.13;;;;;;;9.17;99.61;100995.81;10508282;28;20054;-75
2022/11/10 07:09:54;;;;;;;8.75;6.03;;;;;;;9.10;100.00;100993.66;10492152;28;20102;-75
2022/11/10 07:14:55;;;;;;;11.50;6.85;;;;;;;9.29;99.34;101019.91;10503456;28;20055;-74
2022/11/10 07:19:56;;;;;;;12.35;6.80;;;;;;;9.47;98.08;101029.38;10494079;27;20126;-75
2022/11/10 07:24:58;;;;;;;12.10;7.93;;;;;;;9.77;100.00;101041.63;10480601;28;20510;-76
2022/11/10 07:29:59;;;;;;;6.72;5.93;;;;;;;9.78;97.15;101048.66;10494817;28;20055;-78
2022/11/10 07:35:00;;;;;;;9.70;5.78;;;;;;;9.97;97.00;101068.75;10498939;27;20063;-74
2022/11/10 07:40:02;;;;;;;8.15;5.68;;;;;;;9.93;95.58;101072.59;10506761;28;20060;-76
2022/11/10 07:45:04;;;;;;;11.80;7.45;;;;;;;9.97;94.42;101074.06;10502140;28;20058;-74
2022/11/10 07:50:06;;;;;;;10.60;5.88;;;;;;;10.06;94.28;101069.00;10512402;28;20256;-74
2022/11/10 07:55:08;;;;;;;11.25;6.70;;;;;;;10.22;93.23;101083.97;10490153;28;20054;-75
2022/11/10 08:00:11;;;;;;;10.10;6.35;;;;;;;10.27;92.42;101092.50;10494042;28;20070;-74
2022/11/10 08:05:12;;;;;;;8.73;6.13;;;;;;;10.30;92.45;101096.75;10490816;28;20047;-73
2022/11/10 08:10:14;;;;;;;7.95;5.70;;;;;;;10.18;92.64;101093.13;10502979;28;20055;-75
2022/11/10 08:15:15;;;;;;;8.00;5.15;;;;;;;10.32;92.24;101105.50;10518002;28;20149;-76
2022/11/10 08:20:17;;;;;;;8.50;5.75;;;;;;;10.43;91.75;101097.69;10552038;28;20079;-75
2022/11/10 08:25:18;;;;;;;10.68;6.22;;;;;;;10.30;91.49;101104.75;10550987;28;20090;-75
2022/11/10 08:30:20;;;;;;;7.97;5.80;;;;;;;10.28;92.30;101110.16;10508709;28;20163;-72
2022/11/10 08:35:23;;;;;;;5.75;5.13;;;;;;;10.35;92.28;101103.53;10523545;28;20855;-74
2022/11/10 08:40:26;;;;;;;8.30;5.43;;;;;;;10.49;91.06;101109.75;10548484;28;20051;-76
2022/11/10 08:45:28;;;;;;;7.53;5.03;;;;;;;10.66;90.28;101114.81;10515294;28;20059;-74
2022/11/10 08:50:30;;;;;;;8.15;5.78;;;;;;;10.88;89.47;101116.00;10491831;28;21189;-73
2022/11/10 08:55:31;;;;;;;6.95;4.53;;;;;;;11.02;87.38;101121.25;10506751;28;20051;-73
2022/11/10 09:00:33;;;;;;;8.13;5.15;;;;;;;11.27;86.01;101128.41;10514084;28;20047;-72
2022/11/10 09:05:36;;;;;;;8.02;4.28;;;;;;;11.56;84.43;101145.97;10515330;28;20911;-74
2022/11/10 09:10:40;;;;;;;8.70;4.32;;;;;;;11.85;82.71;101157.25;10514084;28;20048;-75
2022/11/10 09:15:42;;;;;;;11.60;4.20;;;;;;;12.14;80.68;101151.66;10517427;28;20111;-72
2022/11/10 09:20:43;;;;;;;6.22;4.25;;;;;;;12.53;78.38;101157.69;10513456;28;20511;-74
2022/11/10 09:25:51;;;;;;;8.70;4.55;;;;;;;13.16;75.23;101168.97;10518974;28;20059;-74
2022/11/10 09:30:52;;;;;;;7.85;4.05;;;;;;;14.04;71.20;101177.34;10517807;28;20561;-75
2022/11/10 09:35:58;;;;;;;9.27;5.03;;;;;;;15.90;63.87;101190.38;10519342;28;20695;-74
2022/11/10 09:41:03;;;;;;;5.45;3.78;;;;;;;17.13;57.92;101186.47;10514904;28;20051;-75
2022/11/10 09:46:15;;;;;;;8.15;3.80;;;;;;;18.24;54.01;101194.75;10506728;27;20688;-76
2022/11/10 09:51:29;;;;;;;8.05;3.15;;;;;;;18.54;52.97;101216.97;10481289;28;20748;-74
2022/11/10 09:56:33;;;;;;;7.35;3.38;;;;;;;18.15;53.80;101214.47;10490697;28;20043;-73
2022/11/10 10:01:49;;;;;;;8.75;4.18;;;;;;;16.93;56.20;101220.56;10504542;28;20073;-75
2022/11/10 10:07:06;;;;;;;8.65;3.35;;;;;;;16.52;57.28;101223.34;10482662;28;20040;-72
2022/11/10 10:12:44;;;;;;;6.03;2.97;;;;;;;16.15;59.20;101236.53;10502343;28;20270;-77
2022/11/10 10:17:57;;;;;;;8.38;3.42;;;;;;;17.20;56.11;101229.75;10540587;27;20047;-75
2022/11/10 10:23:16;;;;;;;7.03;3.40;;;;;;;15.53;60.92;101236.47;10506486;28;20047;-73
2022/11/10 10:28:17;;;;;;;10.10;4.13;;;;;;;17.25;58.30;101240.94;10503211;27;20192;-75
2022/11/10 10:33:21;;;;;;;7.70;3.80;;;;;;;19.61;49.66;101240.31;10502134;28;20612;-72
2022/11/10 10:38:31;;;;;;;9.07;3.17;;;;;;;19.12;51.14;101247.22;10499700;28;20146;-73
2022/11/10 10:43:32;;;;;;;8.27;3.10;;;;;;;20.36;46.87;101225.34;10487896;28;20060;-73
2022/11/10 10:48:34;;;;;;;6.82;3.63;;;;;;;18.70;51.17;101233.28;10492780;27;20592;-72
2022/11/10 10:53:46;;;;;;;5.97;3.03;;;;;;;19.46;48.92;101239.22;10498355;28;20061;-72
2022/11/10 10:58:54;;;;;;;6.90;3.10;;;;;;;17.73;53.22;101231.06;10501259;28;20256;-71
2022/11/10 11:03:56;;;;;;;7.97;3.58;;;;;;;19.46;49.76;101238.38;10498156;27;20059;-69
2022/11/10 11:09:22;;;;;;;5.32;3.20;;;;;;;18.53;52.09;101243.06;10498165;28;20937;-70
2022/11/10 11:14:26;;;;;;;6.47;2.85;;;;;;;18.00;51.93;101235.69;10498700;28;20059;-68
2022/11/10 11:19:33;;;;;;;5.90;2.95;;;;;;;20.29;47.65;101243.25;10482361;28;20161;-72
2022/11/10 11:24:52;;;;;;;7.57;2.72;;;;;;;21.73;42.66;101246.63;10497767;28;20816;-75
2022/11/10 11:30:08;;;;;;;5.97;2.60;;;;;;;24.47;37.11;101238.75;10502946;28;20047;-75
2022/11/10 11:35:25;;;;;;;8.18;3.28;;;;;;;27.61;33.38;101244.25;10497087;28;20055;-74
2022/11/10 11:40:40;;;;;;;4.28;2.33;;;;;;;30.47;28.83;101245.22;10500725;28;20382;-74
2022/11/10 11:45:58;;;;;;;4.90;2.30;;;;;;;31.23;26.08;101240.09;10511628;28;20764;-72
2022/11/10 11:51:11;;;;;;;6.13;2.20;;;;;;;30.76;27.25;101248.19;10476316;28;20063;-73
2022/11/10 11:56:39;;;;;;;5.35;2.20;;;;;;;23.64;37.15;101255.19;10496273;28;20054;-73
2022/11/10 12:02:02;;;;;;;4.05;2.20;;;;;;;25.70;34.58;101241.41;10489543;28;20055;-73
2022/11/10 12:07:34;;;;;;;7.47;2.67;;;;;;;26.05;34.12;101240.56;10475012;28;20266;-72
2022/11/10 12:13:06;;;;;;;7.78;2.17;;;;;;;26.36;33.50;101248.28;10493943;28;20067;-74
2022/11/10 12:18:16;;;;;;;4.57;1.83;;;;;;;28.87;30.45;101242.09;10497174;28;20052;-74
2022/11/10 12:23:39;;;;;;;3.78;1.60;;;;;;;28.73;28.87;101235.88;10498864;28;20561;-75
2022/11/10 12:28:54;;;;;;;5.00;1.92;;;;;;;24.45;35.20;101242.69;10496967;28;20052;-75
2022/11/10 12:34:04;;;;;;;5.78;2.17;;;;;;;22.02;40.56;101246.03;10505501;27;20056;-73
2022/11/10 12:39:45;;;;;;;7.50;2.13;;;;;;;20.44;43.09;101256.97;10501242;28;20316;-74
2022/11/10 12:45:16;;;;;;;4.25;2.10;;;;;;;22.03;41.21;101255.88;10489813;28;20761;-73
2022/11/10 12:50:43;;;;;;;4.70;2.25;;;;;;;28.87;30.26;101247.59;10503626;28;20044;-71
2022/11/10 12:55:59;;;;;;;4.93;2.17;;;;;;;28.67;28.57;101244.97;10493530;27;20055;-73
2022/11/10 13:01:04;;;;;;;4.70;1.80;;;;;;;29.62;27.46;101239.41;10504774;28;20099;-76
2022/11/10 13:06:23;;;;;;;6.82;1.98;;;;;;;30.48;26.58;101250.47;10505251;27;20048;-74
2022/11/10 13:11:33;;;;;;;5.45;1.58;;;;;;;31.08;24.79;101251.53;10486682;28;20173;-73
2022/11/10 13:16:40;;;;;;;4.60;1.52;;;;;;;31.61;25.14;101266.31;10487216;28;20066;-73
2022/11/10 13:21:51;;;;;;;5.40;1.80;;;;;;;31.85;23.77;101263.53;10483255;28;20043;-74
2022/11/10 13:26:54;;;;;;;4.13;1.65;;;;;;;32.20;24.57;101274.53;10501424;28;20517;-76
2022/11/10 13:32:16;;;;;;;5.03;1.77;;;;;;;32.60;24.00;101262.63;10509784;28;20068;-75
2022/11/10 13:37:33;;;;;;;5.30;2.00;;;;;;;31.47;24.45;101265.69;10494188;28;20128;-75
2022/11/10 13:42:35;;;;;;;5.00;1.50;;;;;;;30.35;25.42;101255.28;10535538;28;20044;-75
2022/11/10 13:47:40;;;;;;;4.30;1.75;;;;;;;29.54;27.02;101258.88;10484755;28;20802;-76
2022/11/10 13:53:00;;;;;;;4.63;1.63;;;;;;;28.40;28.28;101261.53;10483899;28;20085;-75
2022/11/10 13:58:04;;;;;;;5.13;2.03;;;;;;;26.71;30.55;101269.19;10484561;28;20043;-74
2022/11/10 14:03:06;;;;;;;5.65;2.00;;;;;;;23.39;36.44;101268.16;10497605;28;20052;-73
2022/11/10 14:08:08;;;;;;;5.13;2.38;;;;;;;23.77;36.06;101284.44;10499417;28;20135;-75
2022/11/10 14:13:40;;;;;;;6.63;2.40;;;;;;;21.93;38.93;101283.16;10499983;27;20052;-74
2022/11/10 14:18:47;;;;;;;6.57;2.50;;;;;;;20.58;41.97;101286.13;10508867;27;20055;-75
2022/11/10 14:24:04;;;;;;;6.63;2.55;;;;;;;19.55;44.42;101294.13;10488307;28;20071;-72
2022/11/10 14:29:37;;;;;;;8.52;2.50;;;;;;;18.36;47.58;101301.34;10507632;28;20097;-72
2022/11/10 14:34:48;;;;;;;5.50;2.28;;;;;;;20.52;43.46;101296.72;10481543;27;20082;-72
2022/11/10 14:39:53;;;;;;;5.28;2.35;;;;;;;21.37;41.36;101310.94;10502274;28;20496;-72
2022/11/10 14:45:06;;;;;;;6.95;2.92;;;;;;;22.17;39.80;101312.09;10502027;28;20054;-71
2022/11/10 14:50:13;;;;;;;;;;;;;;;23.07;38.24;101312.66;10499637;27;20126;-73
2022/11/10 14:55:19;;;;;;;3.90;2.53;;;;;;;20.58;41.96;101310.47;10486746;28;19959;-71
2022/11/10 15:00:25;;;;;;;5.18;2.72;;;;;;;18.42;47.43;101326.84;10484510;28;20047;-72
2022/11/10 15:05:28;;;;;;;6.82;2.90;;;;;;;17.15;51.17;101335.13;10481641;28;20075;-71
2022/11/10 15:10:39;;;;;;;5.40;2.55;;;;;;;16.60;52.87;101340.91;10477044;28;20526;-71
2022/11/10 15:15:40;;;;;;;7.13;3.08;;;;;;;16.19;54.42;101330.13;10498494;28;20058;-72
2022/11/10 15:20:44;;;;;;;6.40;2.38;;;;;;;15.76;55.93;101323.06;10493267;28;20048;-72
2022/11/10 15:25:46;;;;;;;6.30;2.70;;;;;;;15.60;57.03;101330.72;10477345;28;20090;-71
2022/11/10 15:30:57;;;;;;;5.90;2.60;;;;;;;15.31;58.08;101340.25;10497683;28;20097;-72
2022/11/10 15:36:26;;;;;;;5.78;3.13;;;;;;;14.94;59.43;101337.09;10516689;28;20067;-73
2022/11/10 15:41:31;;;;;;;6.65;3.50;;;;;;;14.64;60.10;101339.44;10513784;28;20573;-72
2022/11/10 15:46:32;;;;;;;5.18;4.00;;;;;;;14.57;61.54;101334.66;10520785;28;20766;-73
2022/11/10 15:51:34;;;;;;;8.18;3.75;;;;;;;14.60;61.78;101339.78;10513289;28;20055;-74
2022/11/10 15:56:35;;;;;;;8.73;3.63;;;;;;;14.47;61.84;101354.16;10513920;28;20051;-72
2022/11/10 16:01:37;;;;;;;9.95;3.92;;;;;;;14.36;62.86;101367.53;10528030;28;20083;-73
2022/11/10 16:06:39;;;;;;;7.70;4.32;;;;;;;14.25;63.63;101370.22;10552618;28;20040;-76
2022/11/10 16:11:43;;;;;;;6.90;4.32;;;;;;;14.22;63.83;101365.13;10540844;28;20055;-71
2022/11/10 16:16:44;;;;;;;7.85;3.47;;;;;;;14.10;63.97;101375.78;10563184;28;20094;-75
2022/11/10 16:21:46;;;;;;;7.85;3.65;;;;;;;14.06;64.60;101365.44;10553424;28;20048;-73
2022/11/10 16:26:47;;;;;;;5.85;3.58;;;;;;;13.90;64.96;101368.44;10553151;28;20123;-72
2022/11/10 16:31:49;;;;;;;6.38;3.30;;;;;;;13.86;65.73;101369.66;10559475;28;20090;-72
2022/11/10 16:36:50;;;;;;;7.47;3.88;;;;;;;13.71;65.98;101375.22;10555866;28;20566;-73
2022/11/10 16:41:52;;;;;;;9.27;3.78;;;;;;;13.71;65.95;101379.72;10525949;28;20660;-71
2022/11/10 16:46:57;;;;;;;8.85;3.75;;;;;;;13.58;66.69;101367.25;10528180;28;20048;-71
2022/11/10 16:52:06;;;;;;;6.90;3.90;;;;;;;13.52;67.57;101385.59;10529154;28;20059;-72
2022/11/10 16:57:13;;;;;;;8.10;4.15;;;;;;;13.51;67.93;101389.22;10512315;28;20043;-75
2022/11/10 17:02:29;;;;;;;8.15;3.75;;;;;;;13.36;67.82;101400.13;10513245;28;20051;-73
2022/11/10 17:07:32;;;;;;;9.38;4.95;;;;;;;13.32;68.48;101414.66;10511058;28;20058;-73
2022/11/10 17:12:33;;;;;;;7.10;4.28;;;;;;;13.30;69.55;101429.97;10502293;28;20221;-74
2022/11/10 17:17:35;;;;;;;6.15;3.90;;;;;;;13.31;69.00;101428.97;10536692;28;20039;-76
2022/11/10 17:22:37;;;;;;;4.55;3.85;;;;;;;13.18;68.97;101417.47;10552403;28;20063;-76
2022/11/10 17:27:38;;;;;;;9.93;4.82;;;;;;;13.13;69.68;101424.97;10532349;28;20509;-73
2022/11/10 17:32:39;;;;;;;6.18;4.07;;;;;;;13.01;70.15;101440.94;10543761;28;20044;-74
2022/11/10 17:38:01;;;;;;;7.70;4.47;;;;;;;12.91;71.30;101451.44;10547230;28;20059;-73
2022/11/10 17:43:02;;;;;;;9.85;4.15;;;;;;;12.93;70.69;101459.34;10551494;28;20082;-74
2022/11/10 17:48:04;;;;;;;5.97;4.07;;;;;;;12.78;71.53;101460.44;10541064;28;20055;-77
2022/11/10 17:53:20;;;;;;;7.18;4.30;;;;;;;12.76;71.47;101457.88;10558109;27;20039;-75
2022/11/10 17:58:22;;;;;;;7.25;4.18;;;;;;;12.64;71.78;101458.72;10553716;28;20275;-76
2022/11/10 18:03:24;;;;;;;7.60;4.97;;;;;;;12.54;72.57;101463.88;10536278;28;20053;-75
2022/11/10 18:08:25;;;;;;;8.23;4.50;;;;;;;12.35;72.98;101462.44;10559532;27;20056;-72
2022/11/10 18:13:27;;;;;;;7.75;5.10;;;;;;;12.38;73.07;101456.94;10543940;27;20056;-73
2022/11/10 18:18:28;;;;;;;10.02;5.70;;;;;;;12.37;73.84;101452.53;10513436;28;20052;-74
2022/11/10 18:23:29;;;;;;;9.70;6.18;;;;;;;12.40;73.88;101464.81;10515072;28;20411;-76
2022/11/10 18:28:32;;;;;;;12.05;6.68;;;;;;;12.42;73.86;101464.72;10505910;28;20142;-76
2022/11/10 18:33:33;;;;;;;10.10;5.50;;;;;;;12.32;73.89;101478.69;10541547;27;20050;-76
2022/11/10 18:38:35;;;;;;;10.18;6.47;;;;;;;12.18;75.18;101473.44;10515570;28;20056;-75
2022/11/10 18:43:36;;;;;;;7.97;5.45;;;;;;;12.17;75.11;101503.75;10517048;27;20053;-73
2022/11/10 18:48:38;;;;;;;8.60;6.40;;;;;;;12.17;75.33;101493.06;10516359;28;20062;-74
2022/11/10 18:53:39;;;;;;;10.55;6.13;;;;;;;12.23;76.02;101507.84;10516711;28;20052;-71
2022/11/10 18:58:41;;;;;;;10.75;7.13;;;;;;;12.18;75.21;101492.13;10530820;28;20038;-74
2022/11/10 19:03:43;;;;;;;10.05;7.15;;;;;;;12.05;75.08;101493.91;10539876;28;20056;-72
2022/11/10 19:08:45;;;;;;;13.57;8.95;;;;;;;11.96;76.17;101514.06;10559276;28;20116;-74
2022/11/10 19:13:47;;;;;;;10.65;7.45;;;;;;;11.99;76.05;101527.19;10559264;28;20059;-75
2022/11/10 19:18:48;;;;;;;11.68;7.95;;;;;;;12.03;76.28;101529.56;10539574;28;20056;-74
2022/11/10 19:23:53;;;;;;;18.83;15.77;;;;;;;11.82;76.27;101538.94;10542325;27;20064;-74
2022/11/10 19:28:55;;;;;;;11.45;9.02;;;;;;;11.81;76.55;101534.56;10539102;28;20332;-75
2022/11/10 19:33:57;;;;;;;17.98;16.10;;;;;;;11.68;76.99;101534.53;10549980;28;20118;-73
2022/11/10 19:38:58;;;;;;;10.65;8.02;;;;;;;11.59;77.51;101532.41;10542332;27;20107;-73
2022/11/10 19:43:59;;;;;;;13.00;11.38;;;;;;;11.50;76.95;101533.91;10543055;28;20057;-73
2022/11/10 19:49:03;;;;;;;11.85;9.80;;;;;;;11.31;77.68;101520.88;10531319;28;20134;-74
2022/11/10 19:54:04;;;;;;;19.73;15.45;;;;;;;11.24;78.22;101539.03;10507024;28;20058;-76
2022/11/10 19:59:07;;;;;;;11.38;8.93;;;;;;;11.25;77.69;101548.75;10488552;27;20051;-72
2022/11/10 20:04:08;;;;;;;7.07;6.10;;;;;;;11.26;78.14;101554.94;10507377;27;20170;-72
2022/11/10 20:09:10;;;;;;;9.30;7.95;;;;;;;11.23;77.76;101556.00;10489638;28;20055;-71
2022/11/10 20:14:11;;;;;;;12.13;8.55;;;;;;;11.09;78.44;101564.88;10506722;28;20335;-74
2022/11/10 20:19:12;;;;;;;11.07;7.45;;;;;;;11.02;79.02;101566.19;10511303;28;20051;-73
2022/11/10 20:24:14;;;;;;;9.10;6.68;;;;;;;10.89;79.46;101568.75;10504959;28;20052;-71
2022/11/10 20:29:15;;;;;;;9.68;6.82;;;;;;;10.75;79.58;101566.06;10488177;28;20526;-73
2022/11/10 20:34:16;;;;;;;13.18;7.65;;;;;;;10.58;80.51;101562.63;10513843;28;20078;-71
2022/11/10 20:39:17;;;;;;;10.57;7.13;;;;;;;10.60;80.33;101558.03;10518147;28;20287;-73
2022/11/10 20:44:19;;;;;;;11.77;6.85;;;;;;;10.56;80.68;101561.84;10531033;28;20047;-74
2022/11/10 20:49:20;;;;;;;10.05;7.38;;;;;;;10.42;80.72;101559.16;10491456;28;20051;-75
2022/11/10 20:54:21;;;;;;;8.90;7.05;;;;;;;10.39;81.05;101572.63;10496654;28;20044;-76
2022/11/10 20:59:23;;;;;;;10.95;8.07;;;;;;;10.28;81.56;101575.88;10543948;27;20047;-73
2022/11/10 21:04:24;;;;;;;9.27;7.07;;;;;;;10.31;81.64;101580.16;10525976;28;20048;-73
2022/11/10 21:09:26;;;;;;;11.85;7.22;;;;;;;10.36;81.47;101575.47;10551485;28;20052;-72
2022/11/10 21:14:27;;;;;;;11.00;7.40;;;;;;;10.34;81.20;101582.69;10545945;28;20054;-76
2022/11/10 21:19:33;;;;;;;8.80;6.85;;;;;;;10.36;81.39;101586.13;10551708;28;20047;-74
2022/11/10 21:24:34;;;;;;;11.73;7.80;;;;;;;10.25;81.47;101584.91;10553294;28;20043;-73
2022/11/10 21:29:35;;;;;;;9.90;7.43;;;;;;;10.13;81.95;101588.25;10543132;28;20044;-72
2022/11/10 21:34:37;;;;;;;12.00;8.05;;;;;;;10.12;81.80;101597.22;10516166;28;20044;-72
2022/11/10 21:39:39;;;;;;;9.45;8.18;;;;;;;10.06;82.19;101584.25;10517234;28;20048;-73
2022/11/10 21:44:40;;;;;;;12.73;7.45;;;;;;;10.07;81.83;101585.94;10531494;28;20901;-74
2022/11/10 21:49:42;;;;;;;12.52;7.38;;;;;;;10.00;82.66;101584.63;10561850;28;20052;-72
2022/11/10 21:54:43;;;;;;;11.57;9.02;;;;;;;9.82;83.35;101592.69;10544973;28;20054;-74
2022/11/10 21:59:44;;;;;;;9.68;8.50;;;;;;;9.80;83.91;101588.38;10533183;27;20571;-74
2022/11/10 22:04:45;;;;;;;12.70;8.63;;;;;;;9.82;83.83;101587.34;10537204;28;20048;-73
2022/11/10 22:20:32;;;;;;;12.80;8.30;;;;;;;9.76;83.63;101577.06;10548214;28;20039;-76
2022/11/10 22:25:34;;;;;;;11.65;8.02;;;;;;;9.70;83.97;101588.91;10565530;27;20150;-76
2022/11/10 22:30:36;;;;;;;10.73;7.43;;;;;;;9.72;84.55;101586.16;10567826;27;20057;-74
2022/11/10 22:35:43;;;;;;;11.52;8.48;;;;;;;9.83;83.46;101593.53;10570650;28;20121;-74
2022/11/10 22:46:05;;;;;;;12.98;7.55;;;;;;;9.77;83.46;101586.75;10522337;28;21237;-74
2022/11/10 22:51:06;;;;;;;13.15;8.93;;;;;;;9.72;83.79;101597.63;10532019;28;20510;-75
2022/11/10 22:56:08;;;;;;;11.63;8.18;;;;;;;9.71;84.32;101600.38;10519329;28;20047;-74
2022/11/10 23:01:10;;;;;;;9.63;7.53;;;;;;;9.83;84.31;101605.03;10509467;28;20618;-73
2022/11/10 23:06:11;;;;;;;9.32;7.43;;;;;;;9.89;83.68;101599.38;10520508;28;20051;-72
2022/11/10 23:11:19;;;;;;;9.73;7.90;;;;;;;9.88;83.41;101602.97;10526684;28;20138;-74
2022/11/10 23:16:26;;;;;;;14.82;8.55;;;;;;;9.71;84.05;101605.69;10527178;28;20051;-72
2022/11/10 23:21:29;;;;;;;10.55;8.13;;;;;;;9.81;84.23;101600.75;10530409;28;20054;-72
2022/11/10 23:26:32;;;;;;;9.70;7.38;;;;;;;9.69;83.79;101596.97;10532304;28;20055;-71
2022/11/10 23:31:34;;;;;;;11.77;7.95;;;;;;;9.74;84.23;101594.88;10532286;28;20387;-75
2022/11/10 23:36:35;;;;;;;9.32;7.22;;;;;;;9.73;84.40;101603.81;10549298;28;20063;-76
2022/11/10 23:41:36;;;;;;;10.10;7.28;;;;;;;9.73;83.44;101614.47;10526575;28;20052;-74
2022/11/10 23:46:37;;;;;;;11.10;6.68;;;;;;;9.71;83.67;101616.34;10528829;28;20047;-75
2022/11/10 23:51:39;;;;;;;9.23;6.93;;;;;;;9.75;83.45;101617.88;10517425;28;20055;-74